createdAt,value
2022-10-28T14:30:25.267Z,20.03
2022-10-28T14:33:26.515Z,19.74
2022-10-28T14:36:09.108Z,19.54
2022-10-28T14:38:51.753Z,19.29
2022-10-28T14:41:37.018Z,19.11
2022-10-28T14:44:14.730Z,18.97
2022-10-28T14:46:56.166Z,18.86
2022-10-28T14:49:27.858Z,18.77
2022-10-28T14:51:56.109Z,18.73
2022-10-28T14:54:40.560Z,18.70
2022-10-28T14:57:09.537Z,18.63
2022-10-28T14:59:39.368Z,18.60
2022-10-28T15:02:17.264Z,18.57
2022-10-28T15:04:45.887Z,18.57
2022-10-28T15:07:16.253Z,18.55
2022-10-28T15:09:46.197Z,18.51
2022-10-28T15:12:17.520Z,18.51
2022-10-28T15:14:48.451Z,18.42
2022-10-28T15:17:20.497Z,18.41
2022-10-28T15:19:51.018Z,18.37
2022-10-28T15:22:21.788Z,18.32
2022-10-28T15:24:58.023Z,18.27
2022-10-28T15:27:28.097Z,18.20
2022-10-28T15:29:57.852Z,18.12
2022-10-28T15:32:30.480Z,18.07
2022-10-28T15:34:58.953Z,17.99
2022-10-28T15:37:29.522Z,17.91
2022-10-28T15:40:14.141Z,17.79
2022-10-28T15:42:45.765Z,17.69
2022-10-28T15:45:18.667Z,17.61
2022-10-28T15:47:49.796Z,17.52
2022-10-28T15:50:30.956Z,17.43
2022-10-28T15:53:39.174Z,17.33
2022-10-28T15:56:25.304Z,17.23
2022-10-28T15:59:07.198Z,17.16
2022-10-28T16:01:39.906Z,17.08
2022-10-28T16:04:43.437Z,17.02
2022-10-28T16:07:11.218Z,16.95
2022-10-28T16:09:45.558Z,16.87
2022-10-28T16:12:16.844Z,16.75
2022-10-28T16:14:46.872Z,16.64
2022-10-28T16:17:18.014Z,16.63
2022-10-28T16:19:52.409Z,16.53
2022-10-28T16:22:22.270Z,16.37
2022-10-28T16:24:52.078Z,16.41
2022-10-28T16:27:22.420Z,16.34
2022-10-28T16:29:50.679Z,16.25
